Time,TemperatureF,DewpointF,PressureIn,WindDirection,WindDirectionDegrees,WindSpeedMPH,WindSpeedGustMPH,Humidity,HourlyPrecipIn,Conditions,Clouds,dailyrainin,SoftwareType,DateUTC
2013-04-04 00:08:00,38.9,37.0,30.24,NW,321,1.0,1.0,94,0.00,,,0.00,weatherlink.com 1.10,2013-04-04 05:08:00,
2013-04-04 00:23:00,38.7,37.0,30.24,North,352,0.0,3.0,94,0.00,,,0.00,weatherlink.com 1.10,2013-04-04 05:23:00,
2013-04-04 00:38:00,38.7,37.0,30.23,NNW,333,1.0,3.0,94,0.00,,,0.00,weatherlink.com 1.10,2013-04-04 05:38:00,
2013-04-04 00:53:00,38.6,37.0,30.23,NW,319,1.0,4.0,95,0.00,,,0.00,weatherlink.com 1.10,2013-04-04 05:53:00,
2013-04-04 01:08:00,38.6,37.0,30.23,NNE,14,1.0,4.0,95,0.00,,,0.00,weatherlink.com 1.10,2013-04-04 06:08:00,
2013-04-04 01:23:00,38.5,37.0,30.22,North,349,1.0,3.0,95,0.01,,,0.01,weatherlink.com 1.10,2013-04-04 06:23:00,
2013-04-04 01:38:00,38.6,38.0,30.23,NNE,27,2.0,3.0,96,0.01,,,0.01,weatherlink.com 1.10,2013-04-04 06:38:00,
2013-04-04 01:53:00,38.5,38.0,30.22,North,354,2.0,4.0,96,0.01,,,0.01,weatherlink.com 1.10,2013-04-04 06:53:00,
2013-04-04 02:08:00,38.4,37.0,30.22,North,359,4.0,5.0,96,0.02,,,0.02,weatherlink.com 1.10,2013-04-04 07:08:00,
2013-04-04 02:23:00,38.4,37.0,30.21,NNW,333,3.0,4.0,96,0.01,,,0.02,weatherlink.com 1.10,2013-04-04 07:23:00,
2013-04-04 02:38:00,38.4,37.0,30.21,NNE,16,2.0,5.0,96,0.01,,,0.02,weatherlink.com 1.10,2013-04-04 07:38:00,
2013-04-04 02:53:00,38.3,37.0,30.21,NNW,343,3.0,5.0,96,0.01,,,0.02,weatherlink.com 1.10,2013-04-04 07:53:00,
2013-04-04 03:08:00,38.8,39.0,30.21,North,354,3.0,4.0,100,0.00,,,0.02,weatherlink.com 1.10,2013-04-04 08:08:00,
2013-04-04 03:23:00,-999.0,-99.9,30.20,North,-999,-999.0,-999.0,-999,0.00,,,0.02,weatherlink.com 1.10,2013-04-04 08:23:00,
2013-04-04 03:38:00,-999.0,-99.9,30.20,North,-999,-999.0,-999.0,-999,0.00,,,0.02,weatherlink.com 1.10,2013-04-04 08:38:00,
2013-04-04 03:53:00,-999.0,-99.9,30.20,North,-999,-999.0,-999.0,-999,0.00,,,0.02,weatherlink.com 1.10,2013-04-04 08:53:00,
2013-04-04 04:08:00,-999.0,-99.9,30.19,North,-999,-999.0,-999.0,-999,0.00,,,0.02,weatherlink.com 1.10,2013-04-04 09:08:00,
2013-04-04 04:23:00,-999.0,-99.9,30.19,North,-999,-999.0,-999.0,-999,0.00,,,0.02,weatherlink.com 1.10,2013-04-04 09:23:00,
2013-04-04 04:38:00,-999.0,-99.9,30.19,North,-999,-999.0,-999.0,-999,0.00,,,0.02,weatherlink.com 1.10,2013-04-04 09:38:00,
2013-04-04 05:08:00,-999.0,-99.9,30.19,North,-999,-999.0,-999.0,-999,0.00,,,0.02,weatherlink.com 1.10,2013-04-04 10:08:00,
2013-04-04 05:23:00,-999.0,-99.9,30.18,North,-999,-999.0,-999.0,-999,0.00,,,0.02,weatherlink.com 1.10,2013-04-04 10:23:00,
2013-04-04 05:38:00,-999.0,-99.9,30.19,North,-999,-999.0,-999.0,-999,0.00,,,0.02,weatherlink.com 1.10,2013-04-04 10:38:00,
2013-04-04 05:53:00,-999.0,-99.9,30.19,North,-999,-999.0,-999.0,-999,0.00,,,0.02,weatherlink.com 1.10,2013-04-04 10:53:00,
2013-04-04 06:08:00,-999.0,-99.9,30.19,North,-999,-999.0,-999.0,-999,0.00,,,0.02,weatherlink.com 1.10,2013-04-04 11:08:00,
2013-04-04 06:23:00,-999.0,-99.9,30.19,North,-999,-999.0,-999.0,-999,0.00,,,0.02,weatherlink.com 1.10,2013-04-04 11:23:00,
2013-04-04 06:38:00,-999.0,-99.9,30.19,North,-999,-999.0,-999.0,-999,0.00,,,0.02,weatherlink.com 1.10,2013-04-04 11:38:00,
2013-04-04 07:08:00,-999.0,-99.9,30.20,North,-999,-999.0,-999.0,-999,0.00,,,0.02,weatherlink.com 1.10,2013-04-04 12:08:00,
2013-04-04 07:23:00,-999.0,-99.9,30.20,North,-999,-999.0,-999.0,-999,0.00,,,0.02,weatherlink.com 1.10,2013-04-04 12:23:00,
2013-04-04 07:38:00,-999.0,-99.9,30.20,North,-999,-999.0,-999.0,-999,0.00,,,0.02,weatherlink.com 1.10,2013-04-04 12:38:00,
2013-04-04 07:53:00,-999.0,-99.9,30.20,North,-999,-999.0,-999.0,-999,0.00,,,0.02,weatherlink.com 1.10,2013-04-04 12:53:00,
2013-04-04 08:08:00,-999.0,-99.9,30.20,North,-999,-999.0,-999.0,-999,0.00,,,0.02,weatherlink.com 1.10,2013-04-04 13:08:00,
2013-04-04 08:23:00,38.3,37.0,30.21,NNE,18,9.0,9.0,94,0.00,,,0.02,weatherlink.com 1.10,2013-04-04 13:23:00,
2013-04-04 08:38:00,38.4,37.0,30.21,NNW,346,2.0,9.0,94,0.00,,,0.02,weatherlink.com 1.10,2013-04-04 13:38:00,
2013-04-04 08:53:00,38.5,37.0,30.21,NNE,31,6.0,10.0,94,0.00,,,0.02,weatherlink.com 1.10,2013-04-04 13:53:00,
2013-04-04 09:23:00,38.7,37.0,30.23,NNE,14,8.0,12.0,93,0.00,,,0.02,weatherlink.com 1.10,2013-04-04 14:23:00,
2013-04-04 09:38:00,38.9,37.0,30.23,North,349,2.0,9.0,92,0.00,,,0.02,weatherlink.com 1.10,2013-04-04 14:38:00,
2013-04-04 10:08:00,39.1,37.0,30.24,North,353,8.0,9.0,92,0.00,,,0.02,weatherlink.com 1.10,2013-04-04 15:08:00,
2013-04-04 10:39:00,39.9,38.0,30.25,NNE,13,6.0,6.0,91,0.00,,,0.02,weatherlink.com 1.10,2013-04-04 15:39:00,
2013-04-04 10:53:00,40.1,38.0,30.25,WNW,300,1.0,7.0,90,0.00,,,0.02,weatherlink.com 1.10,2013-04-04 15:53:00,
2013-04-04 11:08:00,40.2,38.0,30.25,NW,309,1.0,5.0,91,0.00,,,0.02,weatherlink.com 1.10,2013-04-04 16:08:00,
2013-04-04 11:24:00,40.4,38.0,30.26,NW,316,1.0,6.0,90,0.00,,,0.02,weatherlink.com 1.10,2013-04-04 16:24:00,
2013-04-04 11:39:00,41.0,38.0,30.26,West,271,1.0,7.0,90,0.00,,,0.02,weatherlink.com 1.10,2013-04-04 16:39:00,
2013-04-04 12:39:00,42.9,39.0,30.26,NNE,16,2.0,6.0,86,0.00,,,0.02,weatherlink.com 1.10,2013-04-04 17:39:00,
2013-04-04 12:54:00,43.7,40.0,30.26,WNW,292,2.0,5.0,85,0.00,,,0.02,weatherlink.com 1.10,2013-04-04 17:54:00,
2013-04-04 13:09:00,43.7,39.0,30.25,West,268,2.0,6.0,84,0.00,,,0.02,weatherlink.com 1.10,2013-04-04 18:09:00,
2013-04-04 13:24:00,44.2,40.0,30.25,West,270,1.0,5.0,84,0.00,,,0.02,weatherlink.com 1.10,2013-04-04 18:24:00,
2013-04-04 13:39:00,44.5,40.0,30.24,West,270,3.0,6.0,83,0.00,,,0.02,weatherlink.com 1.10,2013-04-04 18:39:00,
2013-04-04 13:54:00,45.1,40.0,30.23,WSW,257,2.0,8.0,82,0.00,,,0.02,weatherlink.com 1.10,2013-04-04 18:54:00,
2013-04-04 14:24:00,46.1,40.0,30.22,NNW,336,5.0,9.0,79,0.00,,,0.02,weatherlink.com 1.10,2013-04-04 19:24:00,
2013-04-04 14:39:00,46.9,40.0,30.22,WNW,302,3.0,9.0,78,0.00,,,0.02,weatherlink.com 1.10,2013-04-04 19:39:00,
2013-04-04 15:01:00,48.4,41.0,30.20,NNW,330,6.0,10.0,75,0.00,,,0.02,weatherlink.com 1.10,2013-04-04 20:01:00,
2013-04-04 15:09:00,49.3,41.0,30.20,NNW,335,4.0,10.0,73,0.00,,,0.02,weatherlink.com 1.10,2013-04-04 20:09:00,
2013-04-04 15:24:00,49.6,41.0,30.20,NNW,343,10.0,12.0,71,0.00,,,0.02,weatherlink.com 1.10,2013-04-04 20:24:00,
2013-04-04 15:39:00,49.9,41.0,30.19,NW,316,2.0,9.0,72,0.00,,,0.02,weatherlink.com 1.10,2013-04-04 20:39:00,
2013-04-04 15:54:00,49.7,41.0,30.19,North,358,7.0,9.0,73,0.00,,,0.02,weatherlink.com 1.10,2013-04-04 20:54:00,
2013-04-04 16:09:00,50.0,41.0,30.18,NNE,15,3.0,10.0,72,0.00,,,0.02,weatherlink.com 1.10,2013-04-04 21:09:00,
2013-04-04 16:39:00,50.7,42.0,30.18,NNW,329,1.0,8.0,71,0.00,,,0.02,weatherlink.com 1.10,2013-04-04 21:39:00,
2013-04-04 16:54:00,50.8,42.0,30.18,NW,309,2.0,11.0,71,0.00,,,0.02,weatherlink.com 1.10,2013-04-04 21:54:00,
2013-04-04 17:09:00,50.9,41.0,30.18,NNE,12,5.0,7.0,70,0.00,,,0.02,weatherlink.com 1.10,2013-04-04 22:09:00,
2013-04-04 17:24:00,51.4,42.0,30.18,NNW,342,2.0,9.0,70,0.00,,,0.02,weatherlink.com 1.10,2013-04-04 22:24:00,
2013-04-04 17:39:00,51.2,42.0,30.17,WNW,285,3.0,6.0,70,0.00,,,0.02,weatherlink.com 1.10,2013-04-04 22:39:00,
2013-04-04 17:54:00,51.0,41.0,30.18,NNW,346,2.0,7.0,69,0.00,,,0.02,weatherlink.com 1.10,2013-04-04 22:54:00,
2013-04-04 18:09:00,51.1,42.0,30.17,North,358,0.0,6.0,70,0.00,,,0.02,weatherlink.com 1.10,2013-04-04 23:09:00,
2013-04-04 18:24:00,51.3,41.0,30.17,NW,322,2.0,7.0,69,0.00,,,0.02,weatherlink.com 1.10,2013-04-04 23:24:00,
2013-04-04 18:39:00,51.5,42.0,30.17,NW,323,0.0,5.0,70,0.00,,,0.02,weatherlink.com 1.10,2013-04-04 23:39:00,
2013-04-04 18:54:00,51.0,42.0,30.17,NW,307,0.0,6.0,70,0.00,,,0.02,weatherlink.com 1.10,2013-04-04 23:54:00,
2013-04-04 19:09:00,50.7,42.0,30.17,WNW,299,0.0,4.0,71,0.00,,,0.02,weatherlink.com 1.10,2013-04-05 00:09:00,
2013-04-04 19:39:00,49.4,41.0,30.17,NW,307,0.0,3.0,73,0.00,,,0.02,weatherlink.com 1.10,2013-04-05 00:39:00,
2013-04-04 19:54:00,48.2,41.0,30.18,West,278,0.0,0.0,75,0.00,,,0.02,weatherlink.com 1.10,2013-04-05 00:54:00,
2013-04-04 20:09:00,46.7,40.0,30.17,West,278,0.0,0.0,78,0.00,,,0.02,weatherlink.com 1.10,2013-04-05 01:09:00,
2013-04-04 20:24:00,45.4,40.0,30.18,West,278,0.0,0.0,80,0.00,,,0.02,weatherlink.com 1.10,2013-04-05 01:24:00,
2013-04-04 20:39:00,44.4,40.0,30.18,WSW,253,0.0,1.0,83,0.00,,,0.02,weatherlink.com 1.10,2013-04-05 01:39:00,
2013-04-04 20:54:00,43.9,39.0,30.19,WSW,248,0.0,0.0,84,0.00,,,0.02,weatherlink.com 1.10,2013-04-05 01:54:00,
2013-04-04 21:09:00,43.8,39.0,30.19,WSW,257,0.0,1.0,84,0.00,,,0.02,weatherlink.com 1.10,2013-04-05 02:09:00,
2013-04-04 21:24:00,43.8,39.0,30.20,West,267,0.0,1.0,84,0.00,,,0.02,weatherlink.com 1.10,2013-04-05 02:24:00,
2013-04-04 21:39:00,44.0,40.0,30.21,WNW,285,0.0,1.0,84,0.00,,,0.02,weatherlink.com 1.10,2013-04-05 02:39:00,
2013-04-04 21:54:00,44.2,40.0,30.22,West,277,0.0,3.0,84,0.00,,,0.02,weatherlink.com 1.10,2013-04-05 02:54:00,
2013-04-04 22:09:00,43.7,40.0,30.22,West,271,0.0,1.0,85,0.00,,,0.02,weatherlink.com 1.10,2013-04-05 03:09:00,
2013-04-04 22:24:00,43.3,39.0,30.22,West,278,0.0,1.0,85,0.00,,,0.02,weatherlink.com 1.10,2013-04-05 03:24:00,
2013-04-04 22:39:00,42.4,39.0,30.22,West,278,0.0,0.0,86,0.00,,,0.02,weatherlink.com 1.10,2013-04-05 03:39:00,
2013-04-04 22:54:00,41.8,39.0,30.23,West,274,0.0,1.0,88,0.00,,,0.02,weatherlink.com 1.10,2013-04-05 03:54:00,
2013-04-04 23:09:00,41.6,38.0,30.23,West,276,0.0,1.0,88,0.00,,,0.02,weatherlink.com 1.10,2013-04-05 04:09:00,
2013-04-04 23:24:00,41.3,38.0,30.23,West,272,0.0,1.0,89,0.00,,,0.02,weatherlink.com 1.10,2013-04-05 04:24:00,
2013-04-04 23:39:00,41.2,38.0,30.23,West,274,0.0,1.0,89,0.00,,,0.02,weatherlink.com 1.10,2013-04-05 04:39:00,
2013-04-04 23:54:00,41.2,38.0,30.23,WNW,292,1.0,2.0,89,0.00,,,0.02,weatherlink.com 1.10,2013-04-05 04:54:00,